createdAt,value
2017-02-05T00:00:47.390Z,99.99
2017-02-05T00:02:01.745Z,99.99
2017-02-05T00:03:15.467Z,99.99
2017-02-05T00:04:29.799Z,99.99
2017-02-05T00:05:44.156Z,99.99
2017-02-05T00:06:58.549Z,99.99
2017-02-05T00:08:12.254Z,99.99
2017-02-05T00:09:26.626Z,99.99
2017-02-05T00:10:40.947Z,99.99
2017-02-05T00:11:55.301Z,99.99
2017-02-05T00:13:09.680Z,99.99
2017-02-05T00:14:24.052Z,99.99
2017-02-05T00:15:37.748Z,99.99
2017-02-05T00:16:52.109Z,99.99
2017-02-05T00:18:06.470Z,99.99
2017-02-05T00:19:20.844Z,99.99
2017-02-05T00:20:34.596Z,99.99
2017-02-05T00:21:48.954Z,99.99
2017-02-05T00:23:03.289Z,99.99
2017-02-05T00:24:17.656Z,99.99
2017-02-05T00:25:30.753Z,99.99
2017-02-05T00:26:45.157Z,99.99
2017-02-05T00:27:59.568Z,99.99
2017-02-05T00:29:13.298Z,99.99
2017-02-05T00:30:27.668Z,99.99
2017-02-05T00:31:42.036Z,99.99
2017-02-05T00:32:56.447Z,99.99
2017-02-05T00:34:10.838Z,99.99
2017-02-05T00:35:25.222Z,99.99
2017-02-05T00:36:39.600Z,99.99
2017-02-05T00:37:53.967Z,99.99
2017-02-05T00:39:08.366Z,99.99
2017-02-05T00:40:22.070Z,99.99
2017-02-05T00:41:35.759Z,99.99
2017-02-05T00:42:50.115Z,99.99
2017-02-05T00:44:03.807Z,99.99
2017-02-05T00:45:18.146Z,99.99
2017-02-05T00:46:30.596Z,99.99
2017-02-05T00:47:44.997Z,99.99
2017-02-05T00:48:59.335Z,99.99
2017-02-05T00:50:13.734Z,99.99
2017-02-05T00:51:28.078Z,99.99
2017-02-05T00:52:42.399Z,99.99
2017-02-05T00:53:56.820Z,99.99
2017-02-05T00:55:11.159Z,99.99
2017-02-05T00:56:25.517Z,99.99
2017-02-05T00:57:39.883Z,99.99
2017-02-05T00:58:54.230Z,99.99
2017-02-05T01:00:07.952Z,99.99
2017-02-05T01:01:22.299Z,99.99
2017-02-05T01:02:36.648Z,99.99
2017-02-05T01:03:51.035Z,99.99
2017-02-05T01:05:05.434Z,99.99
2017-02-05T01:06:19.803Z,99.99
2017-02-05T01:07:34.182Z,99.99
2017-02-05T01:08:48.634Z,99.99
2017-02-05T01:10:03.455Z,99.99
2017-02-05T01:11:17.819Z,99.99
2017-02-05T01:12:32.191Z,99.99
2017-02-05T01:13:46.573Z,99.99
2017-02-05T01:15:00.937Z,99.99
2017-02-05T01:16:14.676Z,99.99
2017-02-05T01:17:29.047Z,99.99
2017-02-05T01:18:42.740Z,99.99
2017-02-05T01:19:57.153Z,99.99
2017-02-05T01:21:11.509Z,99.99
2017-02-05T01:22:25.862Z,99.99
2017-02-05T01:23:39.594Z,99.99
2017-02-05T01:24:53.965Z,99.99
2017-02-05T01:26:08.329Z,99.99
2017-02-05T01:27:22.699Z,99.99
2017-02-05T01:28:37.097Z,99.99
2017-02-05T01:29:51.464Z,99.99
2017-02-05T01:31:05.847Z,99.99
2017-02-05T01:32:20.169Z,99.99
2017-02-05T01:33:34.547Z,99.99
2017-02-05T01:34:49.124Z,99.99
2017-02-05T01:36:03.517Z,99.99
2017-02-05T01:37:17.886Z,99.99
2017-02-05T01:38:32.240Z,99.99
2017-02-05T01:39:46.616Z,99.99
2017-02-05T01:41:00.983Z,99.99
2017-02-05T01:42:14.060Z,99.99
2017-02-05T01:43:28.436Z,99.99
2017-02-05T01:44:42.824Z,99.99
2017-02-05T01:45:57.223Z,99.99
2017-02-05T01:47:11.566Z,99.99
2017-02-05T01:48:25.972Z,99.99
2017-02-05T01:49:39.718Z,99.99
2017-02-05T01:50:54.036Z,99.99
2017-02-05T01:52:07.748Z,99.99
2017-02-05T01:53:22.193Z,99.99
2017-02-05T01:54:35.286Z,99.99
2017-02-05T01:55:49.649Z,99.99
2017-02-05T01:57:03.361Z,99.99
2017-02-05T01:58:17.083Z,99.99
2017-02-05T01:59:31.662Z,99.99
2017-02-05T02:00:45.360Z,99.99
2017-02-05T02:01:59.749Z,99.99
2017-02-05T02:03:12.811Z,99.99
2017-02-05T02:04:27.187Z,99.99
2017-02-05T02:05:40.945Z,99.99
2017-02-05T02:06:55.323Z,99.99
2017-02-05T02:08:09.068Z,99.99
2017-02-05T02:09:23.448Z,99.99
2017-02-05T02:10:37.826Z,99.99
2017-02-05T02:11:52.229Z,99.99
2017-02-05T02:13:06.556Z,99.99
2017-02-05T02:14:20.915Z,99.99
2017-02-05T02:15:34.657Z,99.99
2017-02-05T02:16:48.996Z,99.99
2017-02-05T02:18:03.353Z,99.99
2017-02-05T02:19:17.754Z,99.99
2017-02-05T02:20:32.152Z,99.99
2017-02-05T02:21:45.889Z,99.99
2017-02-05T02:23:00.254Z,99.99
2017-02-05T02:24:14.612Z,99.99
2017-02-05T02:25:28.965Z,99.99
2017-02-05T02:26:43.321Z,99.99
2017-02-05T02:27:57.678Z,99.99
2017-02-05T02:29:12.085Z,99.99
2017-02-05T02:30:26.507Z,99.99
2017-02-05T02:31:40.894Z,99.99
2017-02-05T02:32:55.249Z,99.99
2017-02-05T02:34:09.595Z,99.99
2017-02-05T02:35:23.947Z,99.99
2017-02-05T02:36:38.302Z,99.99
2017-02-05T02:37:52.055Z,99.99
2017-02-05T02:39:06.420Z,99.99
2017-02-05T02:40:20.760Z,99.99
2017-02-05T02:41:34.469Z,99.99
2017-02-05T02:42:48.867Z,99.99
2017-02-05T02:44:03.201Z,99.99
2017-02-05T02:45:17.595Z,99.99
2017-02-05T02:46:32.004Z,99.99
2017-02-05T02:47:45.726Z,99.99
2017-02-05T02:49:00.072Z,99.99
2017-02-05T02:50:14.414Z,99.99
2017-02-05T02:51:28.786Z,99.99
2017-02-05T02:52:43.176Z,99.99
2017-02-05T02:53:57.540Z,99.99
2017-02-05T02:55:11.898Z,99.99
2017-02-05T02:56:26.245Z,99.99
2017-02-05T02:57:40.622Z,99.99
2017-02-05T02:58:55.015Z,99.99
2017-02-05T03:00:09.390Z,99.99
2017-02-05T03:01:23.110Z,99.99
2017-02-05T03:02:36.148Z,99.99
2017-02-05T03:03:50.510Z,99.99
2017-02-05T03:05:04.899Z,99.99
2017-02-05T03:06:18.722Z,99.99
2017-02-05T03:07:33.067Z,99.99
2017-02-05T03:08:47.421Z,99.99
2017-02-05T03:10:01.810Z,99.99
2017-02-05T03:11:16.176Z,99.99
2017-02-05T03:12:29.940Z,99.99
2017-02-05T03:13:44.303Z,99.99
2017-02-05T03:14:58.670Z,99.99
2017-02-05T03:16:13.008Z,99.99
2017-02-05T03:17:27.388Z,99.99
2017-02-05T03:18:41.766Z,99.99
2017-02-05T03:19:56.142Z,99.99
2017-02-05T03:21:09.894Z,99.99
2017-02-05T03:22:24.283Z,99.99
2017-02-05T03:23:38.626Z,99.99
2017-02-05T03:24:53.013Z,99.99
2017-02-05T03:26:07.417Z,99.99
2017-02-05T03:27:21.889Z,99.99
2017-02-05T03:28:36.269Z,99.99
2017-02-05T03:29:50.681Z,99.99
2017-02-05T03:31:05.034Z,99.99
2017-02-05T03:32:18.730Z,99.99
2017-02-05T03:33:33.084Z,99.99
2017-02-05T03:34:47.499Z,99.99
2017-02-05T03:36:01.929Z,99.99
2017-02-05T03:37:16.346Z,99.99
2017-02-05T03:38:30.709Z,99.99
2017-02-05T03:39:45.135Z,99.99
2017-02-05T03:40:59.507Z,99.99
2017-02-05T03:42:13.902Z,99.99
2017-02-05T03:43:28.242Z,99.99
2017-02-05T03:44:42.632Z,99.99
2017-02-05T03:45:55.754Z,99.99
2017-02-05T03:47:10.224Z,99.99
2017-02-05T03:48:24.563Z,99.99
2017-02-05T03:49:38.940Z,99.99
2017-02-05T03:50:53.304Z,99.99
2017-02-05T03:52:07.705Z,99.99
2017-02-05T03:53:20.769Z,99.99
2017-02-05T03:54:34.482Z,99.99
2017-02-05T03:55:48.851Z,99.99
2017-02-05T03:57:03.193Z,99.99
2017-02-05T03:58:17.537Z,99.99
2017-02-05T03:59:31.886Z,99.99
2017-02-05T04:00:46.258Z,99.99
2017-02-05T04:02:00.640Z,99.99
2017-02-05T04:03:14.419Z,99.99
2017-02-05T04:04:28.770Z,99.99
2017-02-05T04:05:42.506Z,99.99
2017-02-05T04:06:56.847Z,99.99
2017-02-05T04:08:11.437Z,99.99
2017-02-05T04:09:25.796Z,99.99
2017-02-05T04:10:40.137Z,99.99
2017-02-05T04:11:54.514Z,99.99
2017-02-05T04:13:08.855Z,99.99
2017-02-05T04:14:22.575Z,99.99
2017-02-05T04:15:36.934Z,99.99
2017-02-05T04:16:51.324Z,99.99
2017-02-05T04:18:05.042Z,99.99
2017-02-05T04:19:18.776Z,99.99
2017-02-05T04:20:33.141Z,99.99
2017-02-05T04:21:46.847Z,99.99
2017-02-05T04:23:01.224Z,99.99
2017-02-05T04:24:14.971Z,99.99
2017-02-05T04:25:29.352Z,99.99
2017-02-05T04:26:43.725Z,99.99
2017-02-05T04:27:58.068Z,99.99
2017-02-05T04:29:12.782Z,99.99
2017-02-05T04:30:27.161Z,99.99
2017-02-05T04:31:40.875Z,99.99
2017-02-05T04:32:55.236Z,99.99
2017-02-05T04:34:08.944Z,99.99
2017-02-05T04:35:23.342Z,99.99
2017-02-05T04:36:37.704Z,99.99
2017-02-05T04:37:52.099Z,99.99
2017-02-05T04:39:06.458Z,99.99
2017-02-05T04:40:20.840Z,99.99
2017-02-05T04:41:35.213Z,99.99
2017-02-05T04:42:49.584Z,99.99
2017-02-05T04:44:03.933Z,99.99
2017-02-05T04:45:17.670Z,99.99
2017-02-05T04:46:32.040Z,99.99
2017-02-05T04:47:45.763Z,99.99
2017-02-05T04:49:00.115Z,99.99
2017-02-05T04:50:14.520Z,99.99
2017-02-05T04:51:28.874Z,99.99
2017-02-05T04:52:43.232Z,99.99
2017-02-05T04:53:57.568Z,99.99
2017-02-05T04:55:11.914Z,99.99
2017-02-05T04:56:26.260Z,99.99
2017-02-05T04:57:40.636Z,99.99
2017-02-05T04:58:55.021Z,99.99
2017-02-05T05:00:08.775Z,99.99
2017-02-05T05:01:23.174Z,99.99
2017-02-05T05:02:37.547Z,99.99
2017-02-05T05:03:51.924Z,99.99
2017-02-05T05:05:05.650Z,99.99
2017-02-05T05:06:20.018Z,99.99
2017-02-05T05:07:34.381Z,99.99
2017-02-05T05:08:48.784Z,99.99
2017-02-05T05:10:03.137Z,99.99
2017-02-05T05:11:16.186Z,99.99
2017-02-05T05:12:30.566Z,99.99
2017-02-05T05:13:44.894Z,99.99
2017-02-05T05:14:59.298Z,99.99
2017-02-05T05:16:13.068Z,99.99
2017-02-05T05:17:27.404Z,99.99
2017-02-05T05:18:41.766Z,99.99
2017-02-05T05:19:56.153Z,99.99
2017-02-05T05:21:10.514Z,99.99
2017-02-05T05:22:24.220Z,99.99
2017-02-05T05:23:38.582Z,99.99
2017-02-05T05:24:52.933Z,99.99
2017-02-05T05:26:06.616Z,99.99
2017-02-05T05:27:21.015Z,99.99
2017-02-05T05:28:35.389Z,99.99
2017-02-05T05:29:49.779Z,99.99
2017-02-05T05:31:04.135Z,99.99
2017-02-05T05:32:18.504Z,99.99
2017-02-05T05:33:32.889Z,99.99
2017-02-05T05:34:47.263Z,99.99
2017-02-05T05:36:01.630Z,99.99
2017-02-05T05:37:14.718Z,99.99
2017-02-05T05:38:29.090Z,99.99
2017-02-05T05:39:43.444Z,99.99
2017-02-05T05:40:57.813Z,99.99
2017-02-05T05:42:12.159Z,99.99
2017-02-05T05:43:26.528Z,99.99
2017-02-05T05:44:40.900Z,99.99
2017-02-05T05:45:55.282Z,99.99
2017-02-05T05:47:09.679Z,99.99
2017-02-05T05:48:24.015Z,99.99
2017-02-05T05:49:37.726Z,99.99
2017-02-05T05:50:52.108Z,99.99
2017-02-05T05:52:05.830Z,99.99
2017-02-05T05:53:20.188Z,99.99
2017-02-05T05:54:34.577Z,99.99
2017-02-05T05:55:48.937Z,99.99
2017-02-05T05:57:03.310Z,99.99
2017-02-05T05:58:17.687Z,99.99
2017-02-05T05:59:32.068Z,99.99
2017-02-05T06:00:46.388Z,99.99
2017-02-05T06:02:00.803Z,99.99
2017-02-05T06:03:15.159Z,99.99
2017-02-05T06:04:29.546Z,99.99
2017-02-05T06:05:43.243Z,99.99
2017-02-05T06:06:57.582Z,99.99
2017-02-05T06:08:11.955Z,99.99
2017-02-05T06:09:26.308Z,99.99
2017-02-05T06:10:40.688Z,99.99
2017-02-05T06:11:55.083Z,99.99
2017-02-05T06:13:08.834Z,99.99
2017-02-05T06:14:23.327Z,99.99
2017-02-05T06:15:37.468Z,99.99
2017-02-05T06:16:51.831Z,99.99
2017-02-05T06:18:06.192Z,99.99
2017-02-05T06:19:20.590Z,99.99
2017-02-05T06:20:34.966Z,99.99
2017-02-05T06:21:49.335Z,99.99
2017-02-05T06:23:03.707Z,99.99
2017-02-05T06:24:17.415Z,99.99
2017-02-05T06:25:31.813Z,99.99
2017-02-05T06:26:46.169Z,99.99
2017-02-05T06:28:00.550Z,99.99
2017-02-05T06:29:14.302Z,99.99
2017-02-05T06:30:28.712Z,99.99
2017-02-05T06:31:43.027Z,99.99
2017-02-05T06:32:57.402Z,99.99
2017-02-05T06:34:11.787Z,99.99
2017-02-05T06:35:26.137Z,99.99
2017-02-05T06:36:40.534Z,99.99
2017-02-05T06:37:54.300Z,99.99
2017-02-05T06:39:08.674Z,99.99
2017-02-05T06:40:23.078Z,99.99
2017-02-05T06:41:36.797Z,99.99
2017-02-05T06:42:51.169Z,99.99
2017-02-05T06:44:05.573Z,99.99
2017-02-05T06:45:19.294Z,99.99
2017-02-05T06:46:33.645Z,99.99
2017-02-05T06:47:47.985Z,99.99
2017-02-05T06:49:02.357Z,99.99
2017-02-05T06:50:16.753Z,99.99
2017-02-05T06:51:31.173Z,99.99
2017-02-05T06:52:45.529Z,99.99
2017-02-05T06:53:59.879Z,99.99
2017-02-05T06:55:14.240Z,99.99
2017-02-05T06:56:28.611Z,99.99
2017-02-05T06:57:43.029Z,99.99
2017-02-05T06:58:57.412Z,99.99
2017-02-05T07:00:11.112Z,99.99
2017-02-05T07:01:24.826Z,99.99
2017-02-05T07:02:38.544Z,99.99
2017-02-05T07:03:52.875Z,99.99
2017-02-05T07:05:07.267Z,99.99
2017-02-05T07:06:21.643Z,99.99
2017-02-05T07:07:35.993Z,99.99
2017-02-05T07:08:50.367Z,99.99
2017-02-05T07:10:04.681Z,99.99
2017-02-05T07:11:18.398Z,99.99
2017-02-05T07:12:32.799Z,99.99
2017-02-05T07:13:47.182Z,99.99
2017-02-05T07:15:01.530Z,99.99
2017-02-05T07:16:15.890Z,99.99
2017-02-05T07:17:30.249Z,99.99
2017-02-05T07:18:44.646Z,99.99
2017-02-05T07:19:59.055Z,99.99
2017-02-05T07:21:13.453Z,99.99
2017-02-05T07:22:27.845Z,99.99
2017-02-05T07:23:41.533Z,99.99
2017-02-05T07:24:55.844Z,99.99
2017-02-05T07:26:09.600Z,99.99
2017-02-05T07:27:23.980Z,99.99
2017-02-05T07:28:38.333Z,99.99
2017-02-05T07:29:52.669Z,99.99
2017-02-05T07:31:07.000Z,99.99
2017-02-05T07:32:20.707Z,99.99
2017-02-05T07:33:35.088Z,99.99
2017-02-05T07:34:49.020Z,99.99
2017-02-05T07:36:03.412Z,99.99
2017-02-05T07:37:17.760Z,99.99
2017-02-05T07:38:32.094Z,99.99
2017-02-05T07:39:46.473Z,99.99
2017-02-05T07:41:00.871Z,99.99
2017-02-05T07:42:15.235Z,99.99
2017-02-05T07:43:29.626Z,99.99
2017-02-05T07:44:43.988Z,99.99
2017-02-05T07:45:58.345Z,99.99
2017-02-05T07:47:12.019Z,99.99
2017-02-05T07:48:26.401Z,99.99
2017-02-05T07:49:39.496Z,99.99
2017-02-05T07:50:53.859Z,99.99
2017-02-05T07:52:08.223Z,99.99
2017-02-05T07:53:22.630Z,99.99
2017-02-05T07:54:36.995Z,99.99
2017-02-05T07:55:51.355Z,99.99
2017-02-05T07:57:05.711Z,99.99
2017-02-05T07:58:20.124Z,99.99
2017-02-05T07:59:34.498Z,99.99
2017-02-05T08:00:49.018Z,99.99
2017-02-05T08:02:03.371Z,99.99
2017-02-05T08:03:17.766Z,99.99
2017-02-05T08:04:32.138Z,99.99
2017-02-05T08:05:46.516Z,99.99
2017-02-05T08:07:00.252Z,99.99
2017-02-05T08:08:13.974Z,99.99
2017-02-05T08:09:28.377Z,99.99
2017-02-05T08:10:42.786Z,99.99
2017-02-05T08:11:57.165Z,99.99
2017-02-05T08:13:11.585Z,99.99
2017-02-05T08:14:25.931Z,99.99
2017-02-05T08:15:40.303Z,99.99
2017-02-05T08:16:54.686Z,99.99
2017-02-05T08:18:08.390Z,99.99
2017-02-05T08:19:22.156Z,99.99
2017-02-05T08:20:36.528Z,99.99
2017-02-05T08:21:50.862Z,99.99
2017-02-05T08:23:05.248Z,99.99
2017-02-05T08:24:18.358Z,99.99
2017-02-05T08:25:32.140Z,99.99
2017-02-05T08:26:46.507Z,99.99
2017-02-05T08:28:00.913Z,99.99
2017-02-05T08:29:14.631Z,99.99
2017-02-05T08:30:29.021Z,99.99
2017-02-05T08:31:43.357Z,99.99
2017-02-05T08:32:57.731Z,99.99
2017-02-05T08:34:12.071Z,99.99
2017-02-05T08:35:26.526Z,99.99
2017-02-05T08:36:40.861Z,99.99
2017-02-05T08:37:55.253Z,99.99
2017-02-05T08:39:09.019Z,99.99
2017-02-05T08:40:23.381Z,99.99
2017-02-05T08:41:37.156Z,99.99
2017-02-05T08:42:51.507Z,99.99
2017-02-05T08:44:05.860Z,99.99
2017-02-05T08:45:20.190Z,99.99
2017-02-05T08:46:33.909Z,99.99
2017-02-05T08:47:48.289Z,99.99
2017-02-05T08:49:02.653Z,99.99
2017-02-05T08:50:16.995Z,99.99
2017-02-05T08:51:31.365Z,99.99
2017-02-05T08:52:45.217Z,99.99
2017-02-05T08:53:59.745Z,99.99
2017-02-05T08:55:13.467Z,99.99
2017-02-05T08:56:27.195Z,99.99
2017-02-05T08:57:41.540Z,99.99
2017-02-05T08:58:55.928Z,99.99
2017-02-05T09:00:09.660Z,99.99
2017-02-05T09:01:24.009Z,99.99
2017-02-05T09:02:38.400Z,99.99
2017-02-05T09:03:52.776Z,99.99
2017-02-05T09:05:07.150Z,99.99
2017-02-05T09:06:21.516Z,99.99
2017-02-05T09:07:35.287Z,99.99
2017-02-05T09:08:49.627Z,99.99
2017-02-05T09:10:03.975Z,99.99
2017-02-05T09:11:18.348Z,99.99
2017-02-05T09:12:32.725Z,99.99
2017-02-05T09:13:47.093Z,99.99
2017-02-05T09:15:01.459Z,99.99
2017-02-05T09:16:15.175Z,99.99
2017-02-05T09:17:28.919Z,99.99
2017-02-05T09:18:42.682Z,99.99
2017-02-05T09:19:57.062Z,99.99
2017-02-05T09:21:11.455Z,99.99
2017-02-05T09:22:25.878Z,99.99
2017-02-05T09:23:40.236Z,99.99
2017-02-05T09:24:54.628Z,99.99
2017-02-05T09:26:08.967Z,99.99
2017-02-05T09:27:23.327Z,99.99
2017-02-05T09:28:37.056Z,99.99
2017-02-05T09:29:51.392Z,99.99
2017-02-05T09:31:05.720Z,99.99
2017-02-05T09:32:20.076Z,99.69
2017-02-05T09:33:34.509Z,99.94
2017-02-05T09:34:48.237Z,98.97
2017-02-05T09:36:02.613Z,97.72
2017-02-05T09:37:16.999Z,97.04
2017-02-05T09:38:31.348Z,96.41
2017-02-05T09:39:45.057Z,95.45
2017-02-05T09:40:59.424Z,93.66
2017-02-05T09:42:13.790Z,93.37
2017-02-05T09:43:28.144Z,93.75
2017-02-05T09:44:41.837Z,91.77
2017-02-05T09:45:56.199Z,89.93
2017-02-05T09:47:09.929Z,89.11
2017-02-05T09:48:24.314Z,87.6
2017-02-05T09:49:38.060Z,86.58
2017-02-05T09:50:52.406Z,84.16
2017-02-05T09:52:06.144Z,83.03
2017-02-05T09:53:20.535Z,81.72
2017-02-05T09:54:34.251Z,81.85
2017-02-05T09:55:48.629Z,79.47
2017-02-05T09:57:02.987Z,79.08
2017-02-05T09:58:17.364Z,79.53
2017-02-05T09:59:31.738Z,80.88
2017-02-05T10:00:46.097Z,81.18
2017-02-05T10:02:00.481Z,80.4
2017-02-05T10:03:14.854Z,81.76
2017-02-05T10:04:29.207Z,85.46
2017-02-05T10:05:43.579Z,84.74
2017-02-05T10:06:57.983Z,85.47
2017-02-05T10:08:11.712Z,85.76
2017-02-05T10:09:26.059Z,87.17
2017-02-05T10:10:39.167Z,86.78
2017-02-05T10:11:53.515Z,86.88
2017-02-05T10:13:07.871Z,87.41
2017-02-05T10:14:21.618Z,88.09
2017-02-05T10:15:35.975Z,88.57
2017-02-05T10:16:50.314Z,87.61
2017-02-05T10:18:04.716Z,88.62
2017-02-05T10:19:17.802Z,86.49
2017-02-05T10:20:31.503Z,86.49
2017-02-05T10:21:45.258Z,85.57
2017-02-05T10:22:59.683Z,82.6
2017-02-05T10:24:14.037Z,81.87
2017-02-05T10:25:28.777Z,82.94
2017-02-05T10:26:42.537Z,82.84
2017-02-05T10:27:56.881Z,82.51
2017-02-05T10:29:10.609Z,82.75
2017-02-05T10:30:24.968Z,82.41
2017-02-05T10:31:38.740Z,82.22
2017-02-05T10:32:53.083Z,83.28
2017-02-05T10:34:07.437Z,82.26
2017-02-05T10:35:22.041Z,83.96
2017-02-05T10:36:36.441Z,85.31
2017-02-05T10:37:50.795Z,84.16
2017-02-05T10:39:05.176Z,84.93
2017-02-05T10:40:18.911Z,83.67
2017-02-05T10:41:33.304Z,82.6
2017-02-05T10:42:47.071Z,80.75
2017-02-05T10:44:01.441Z,80.5
2017-02-05T10:45:15.153Z,77.34
2017-02-05T10:46:29.742Z,77.49
2017-02-05T10:47:44.143Z,78.85
2017-02-05T10:48:58.526Z,79.63
2017-02-05T10:50:12.930Z,78.94
2017-02-05T10:51:27.327Z,77.11
2017-02-05T10:52:41.720Z,78.69
2017-02-05T10:53:55.451Z,77.14
2017-02-05T10:55:09.835Z,76.5
2017-02-05T10:56:24.220Z,76.6
2017-02-05T10:57:38.600Z,76.21
2017-02-05T10:58:52.988Z,75.88
2017-02-05T11:00:06.734Z,76.95
2017-02-05T11:01:20.471Z,78.85
2017-02-05T11:02:34.213Z,77.2
2017-02-05T11:03:48.590Z,76.56
2017-02-05T11:05:02.919Z,74.75
2017-02-05T11:06:17.293Z,76.46
2017-02-05T11:07:31.698Z,77.01
2017-02-05T11:08:45.384Z,76.42
2017-02-05T11:09:59.797Z,77.39
2017-02-05T11:11:14.167Z,76.42
2017-02-05T11:12:28.573Z,77.78
2017-02-05T11:13:42.990Z,77.29
2017-02-05T11:14:56.769Z,77.49
2017-02-05T11:16:10.503Z,75.84
2017-02-05T11:17:24.915Z,76.95
2017-02-05T11:18:39.287Z,77.43
2017-02-05T11:19:52.998Z,77.49
2017-02-05T11:21:07.403Z,79.78
2017-02-05T11:22:21.778Z,77.55
2017-02-05T11:23:36.172Z,77.59
2017-02-05T11:24:50.508Z,77.43
2017-02-05T11:26:04.874Z,77.72
2017-02-05T11:27:19.222Z,74.81
2017-02-05T11:28:33.616Z,75.88
2017-02-05T11:29:48.023Z,75.53
2017-02-05T11:31:02.427Z,75.59
2017-02-05T11:32:16.792Z,75.59
2017-02-05T11:33:31.164Z,73.78
2017-02-05T11:34:45.557Z,73.3
2017-02-05T11:35:59.906Z,73.46
2017-02-05T11:37:14.237Z,72.3
2017-02-05T11:38:28.636Z,74.3
2017-02-05T11:39:42.366Z,74.6
2017-02-05T11:40:56.114Z,73.2
2017-02-05T11:42:10.491Z,72.45
2017-02-05T11:43:24.894Z,72.07
2017-02-05T11:44:39.312Z,74.37
2017-02-05T11:45:53.055Z,76.07
2017-02-05T11:47:07.437Z,75.78
2017-02-05T11:48:21.152Z,76.91
2017-02-05T11:49:35.522Z,75.88
2017-02-05T11:50:49.884Z,75.4
2017-02-05T11:52:04.237Z,75.59
2017-02-05T11:53:17.960Z,74.71
2017-02-05T11:54:32.322Z,72.97
2017-02-05T11:55:47.062Z,73.88
2017-02-05T11:57:00.786Z,74.62
2017-02-05T11:58:14.556Z,74.81
2017-02-05T11:59:28.924Z,75.26
2017-02-05T12:00:43.287Z,74.91
2017-02-05T12:01:57.677Z,75.68
2017-02-05T12:03:11.417Z,75.68
2017-02-05T12:04:25.778Z,75.49
2017-02-05T12:05:38.891Z,75.59
2017-02-05T12:06:52.620Z,76.81
2017-02-05T12:08:07.020Z,75.88
2017-02-05T12:09:20.774Z,75.4
2017-02-05T12:10:35.126Z,75.43
2017-02-05T12:11:49.507Z,74.01
2017-02-05T12:13:03.879Z,72.85
2017-02-05T12:14:18.321Z,69.87
2017-02-05T12:15:32.031Z,70.75
2017-02-05T12:16:46.408Z,72.49
2017-02-05T12:18:00.753Z,73.52
2017-02-05T12:19:15.137Z,75.47
2017-02-05T12:20:29.514Z,73.68
2017-02-05T12:21:43.932Z,74.17
2017-02-05T12:22:57.704Z,73.97
2017-02-05T12:24:12.059Z,72.52
2017-02-05T12:25:26.399Z,73.3
2017-02-05T12:26:40.807Z,73.72
2017-02-05T12:27:55.186Z,73.43
2017-02-05T12:29:08.952Z,72.78
2017-02-05T12:30:23.349Z,72.78
2017-02-05T12:31:37.097Z,72.36
2017-02-05T12:32:51.465Z,72.45
2017-02-05T12:34:05.865Z,69.29
2017-02-05T12:35:20.238Z,70.36
2017-02-05T12:36:33.969Z,69.51
2017-02-05T12:37:48.341Z,68.38
2017-02-05T12:39:02.703Z,67.11
2017-02-05T12:40:17.061Z,67.54
2017-02-05T12:41:31.414Z,66.79
2017-02-05T12:42:45.795Z,65.53
2017-02-05T12:43:59.530Z,67.08
2017-02-05T12:45:13.908Z,70.07
2017-02-05T12:46:28.305Z,70.97
2017-02-05T12:47:42.702Z,72.59
2017-02-05T12:48:57.098Z,71.42
2017-02-05T12:50:10.168Z,72.04
2017-02-05T12:51:24.596Z,71.66
2017-02-05T12:52:38.960Z,73.69
2017-02-05T12:53:53.312Z,73.95
2017-02-05T12:55:07.674Z,75.24
2017-02-05T12:56:21.428Z,75.04
2017-02-05T12:57:35.782Z,77.86
2017-02-05T12:58:49.485Z,75.04
2017-02-05T13:00:03.904Z,75.43
2017-02-05T13:01:18.243Z,75.59
2017-02-05T13:02:32.590Z,74.17
2017-02-05T13:03:47.018Z,72.07
2017-02-05T13:05:01.408Z,72.85
2017-02-05T13:06:15.863Z,70.55
2017-02-05T13:07:30.239Z,69.13
2017-02-05T13:08:44.591Z,70.62
2017-02-05T13:09:58.975Z,70.39
2017-02-05T13:11:12.718Z,71.46
2017-02-05T13:12:27.115Z,72.24
2017-02-05T13:13:41.510Z,72.11
2017-02-05T13:14:55.882Z,71.13
2017-02-05T13:16:10.297Z,72.92
2017-02-05T13:17:24.733Z,72.27
2017-02-05T13:18:38.504Z,71.13
2017-02-05T13:19:51.595Z,68.54
2017-02-05T13:21:05.971Z,69.87
2017-02-05T13:22:20.387Z,71.42
2017-02-05T13:23:34.114Z,72.11
2017-02-05T13:24:52.983Z,72.65
2017-02-05T13:26:07.326Z,71.88
2017-02-05T13:27:21.019Z,72.07
2017-02-05T13:28:34.731Z,72.17
2017-02-05T13:29:49.101Z,72.27
2017-02-05T13:31:03.470Z,71.97
2017-02-05T13:32:17.846Z,69.38
2017-02-05T13:33:32.230Z,67.8
2017-02-05T13:34:45.974Z,68.35
2017-02-05T13:36:00.339Z,66.89
2017-02-05T13:37:14.045Z,68.06
2017-02-05T13:38:28.399Z,68.06
2017-02-05T13:39:42.715Z,69.48
2017-02-05T13:40:57.144Z,70.72
2017-02-05T13:42:11.569Z,72.04
2017-02-05T13:43:25.313Z,72.01
2017-02-05T13:44:39.693Z,71.36
2017-02-05T13:45:54.122Z,70.97
2017-02-05T13:47:08.497Z,71.46
2017-02-05T13:48:22.939Z,71.17
2017-02-05T13:49:37.325Z,69.45
2017-02-05T13:50:51.694Z,71.2
2017-02-05T13:52:06.034Z,69.48
2017-02-05T13:53:19.741Z,71.53
2017-02-05T13:54:34.104Z,71.88
2017-02-05T13:55:48.513Z,69.55
2017-02-05T13:57:02.238Z,68.45
2017-02-05T13:58:16.610Z,65.98
2017-02-05T13:59:30.994Z,65.04
2017-02-05T14:00:45.338Z,62.82
2017-02-05T14:01:59.704Z,62.76
2017-02-05T14:03:14.085Z,60.84
2017-02-05T14:04:27.850Z,60.06
2017-02-05T14:05:41.600Z,62.16
2017-02-05T14:06:55.962Z,63.12
2017-02-05T14:08:10.379Z,63.73
2017-02-05T14:09:24.730Z,63.9
2017-02-05T14:10:39.103Z,64.62
2017-02-05T14:11:53.573Z,64.72
2017-02-05T14:13:07.336Z,65.5
2017-02-05T14:14:21.710Z,65.43
2017-02-05T14:15:36.066Z,65.3
2017-02-05T14:16:50.430Z,65.07
2017-02-05T14:18:04.799Z,65.78
2017-02-05T14:19:18.525Z,65.88
2017-02-05T14:20:32.266Z,65.3
2017-02-05T14:21:46.660Z,66.08
2017-02-05T14:23:01.047Z,65.75
2017-02-05T14:24:14.766Z,65.75
2017-02-05T14:25:29.191Z,66.21
2017-02-05T14:26:43.572Z,66.05
2017-02-05T14:27:57.948Z,66.14
2017-02-05T14:29:11.687Z,63.67
2017-02-05T14:30:26.054Z,62.18
2017-02-05T14:31:40.512Z,59.89
2017-02-05T14:32:54.291Z,63.38
2017-02-05T14:34:08.666Z,63.41
2017-02-05T14:35:23.073Z,64.87
2017-02-05T14:36:36.818Z,65.23
2017-02-05T14:37:51.228Z,65.11
2017-02-05T14:39:05.606Z,67.38
2017-02-05T14:40:20.035Z,66.31
2017-02-05T14:41:34.417Z,64
2017-02-05T14:42:48.770Z,64.03
2017-02-05T14:44:03.160Z,64.1
2017-02-05T14:45:17.558Z,63.42
2017-02-05T14:46:31.905Z,62.22
2017-02-05T14:47:45.656Z,62.96
2017-02-05T14:48:59.377Z,65.2
2017-02-05T14:50:13.773Z,63.65
2017-02-05T14:51:28.165Z,63.09
2017-02-05T14:52:42.555Z,63.61
2017-02-05T14:53:56.970Z,63.12
2017-02-05T14:55:11.345Z,61.69
2017-02-05T14:56:25.674Z,63.74
2017-02-05T14:57:40.064Z,62.66
2017-02-05T14:58:54.406Z,62.76
2017-02-05T15:00:08.186Z,62.5
2017-02-05T15:01:22.013Z,63.57
2017-02-05T15:02:36.417Z,65.07
2017-02-05T15:03:50.855Z,66.11
2017-02-05T15:05:05.238Z,66.76
2017-02-05T15:06:19.642Z,66.63
2017-02-05T15:07:34.035Z,66.66
2017-02-05T15:08:48.420Z,62.99
2017-02-05T15:10:02.802Z,63.54
2017-02-05T15:11:17.191Z,64.03
2017-02-05T15:12:31.540Z,64.69
2017-02-05T15:13:45.919Z,66.41
2017-02-05T15:14:59.679Z,68.8
2017-02-05T15:16:14.041Z,69.26
2017-02-05T15:17:28.396Z,69.9
2017-02-05T15:18:42.782Z,69.42
2017-02-05T15:19:57.148Z,66.05
2017-02-05T15:21:10.915Z,65.14
2017-02-05T15:22:25.330Z,65.26
2017-02-05T15:23:39.681Z,62.89
2017-02-05T15:24:54.084Z,60.97
2017-02-05T15:26:08.471Z,58.69
2017-02-05T15:27:22.242Z,56.99
2017-02-05T15:28:36.595Z,56.13
2017-02-05T15:29:51.052Z,56.95
2017-02-05T15:31:05.444Z,59.23
2017-02-05T15:32:19.211Z,61.43
2017-02-05T15:33:33.586Z,60.32
2017-02-05T15:34:48.007Z,61.91
2017-02-05T15:36:02.360Z,61.52
2017-02-05T15:37:16.744Z,63.51
2017-02-05T15:38:31.168Z,64.13
2017-02-05T15:39:45.527Z,63.9
2017-02-05T15:40:59.897Z,64.07
2017-02-05T15:42:14.241Z,64.17
2017-02-05T15:43:27.971Z,63.42
2017-02-05T15:44:41.737Z,63.15
2017-02-05T15:45:56.151Z,62.57
2017-02-05T15:47:10.531Z,63.54
2017-02-05T15:48:24.895Z,63.81
2017-02-05T15:49:39.270Z,64.39
2017-02-05T15:50:53.036Z,62.86
2017-02-05T15:52:07.486Z,60.1
2017-02-05T15:53:21.883Z,59.18
2017-02-05T15:54:36.273Z,61.25
2017-02-05T15:55:50.748Z,58.17
2017-02-05T15:57:05.169Z,60.22